Time;durP1;ratioP1;P1;durP2;ratioP2;P2;SDS_P1;SDS_P2;PMS_P1;PMS_P2;Temp;Humidity;BMP_temperature;BMP_pressure;BME280_temperature;BME280_humidity;BME280_pressure;Samples;Min_cycle;Max_cycle;Signal;HPM_P1;HPM_P2
2023/05/19 00:00:59;;;;;;;;;14.50;14.50;;;;;-147.17;100.00;19921.84;4994491;28;51358;-63
2023/05/19 00:03:25;;;;;;;;;19.00;18.00;;;;;-147.17;100.00;18421.97;4994304;28;51048;-63
2023/05/19 00:05:52;;;;;;;;;19.25;19.00;;;;;-147.17;100.00;17172.50;4992773;28;51174;-63
2023/05/19 00:08:18;;;;;;;;;19.75;18.50;;;;;-147.17;100.00;16173.25;4992623;28;51171;-63
2023/05/19 00:10:44;;;;;;;;;17.25;17.00;;;;;-147.17;100.00;14425.13;4994131;28;51116;-63
2023/05/19 00:13:10;;;;;;;;;16.75;15.00;;;;;-147.17;100.00;12677.78;4992725;28;51318;-63
2023/05/19 00:15:36;;;;;;;;;21.25;20.00;;;;;-147.17;100.00;11929.16;4993830;28;52212;-63
2023/05/19 00:18:01;;;;;;;;;17.00;16.00;;;;;-147.17;100.00;10681.81;4993777;28;51187;-63
2023/05/19 00:20:26;;;;;;;;;19.00;17.00;;;;;-147.17;100.00;9684.19;4976011;28;51307;-62
2023/05/19 00:22:52;;;;;;;;;17.25;15.75;;;;;-147.17;100.00;8936.16;4994119;28;51149;-63
2023/05/19 00:25:17;;;;;;;;;18.00;18.00;;;;;-147.17;100.00;8188.25;4992198;28;59052;-63
2023/05/19 00:27:42;;;;;;;;;16.75;16.00;;;;;-147.17;100.00;6942.09;4988883;28;51219;-62
2023/05/19 00:30:08;;;;;;;;;19.00;19.00;;;;;-147.17;100.00;6443.75;4984745;28;50950;-63
2023/05/19 00:32:34;;;;;;;;;23.50;20.75;;;;;-147.17;100.00;5198.13;4993782;28;50938;-63
2023/05/19 00:34:59;;;;;;;;;17.25;17.00;;;;;-147.17;100.00;4949.06;4993665;28;51248;-64
2023/05/19 00:37:25;;;;;;;;;19.75;18.25;;;;;-147.17;100.00;3952.94;4993308;28;51218;-63
2023/05/19 00:39:51;;;;;;;;;20.75;19.25;;;;;-147.17;100.00;3454.97;4993607;28;51289;-63
2023/05/19 00:42:16;;;;;;;;;20.00;18.00;;;;;-147.17;100.00;1712.56;4992383;28;51543;-62
2023/05/19 00:44:42;;;;;;;;;17.50;15.75;;;;;-147.17;100.00;468.50;4993479;28;51322;-63
2023/05/19 00:47:07;;;;;;;;;16.50;15.25;;;;;-147.17;100.00;-277.75;4992158;28;51157;-64
2023/05/19 00:49:34;;;;;;;;;20.50;20.25;;;;;-147.17;100.00;-277.75;4993893;28;51012;-63
2023/05/19 00:52:00;;;;;;;;;20.75;19.25;;;;;-147.17;100.00;-775.19;4993199;28;51274;-63
2023/05/19 00:54:27;;;;;;;;;15.75;14.75;;;;;-147.17;100.00;-1769.84;4993059;28;51686;-63
2023/05/19 00:56:54;;;;;;;;;17.75;16.25;;;;;-147.17;100.00;-1769.84;4993262;28;51027;-63
2023/05/19 00:59:19;;;;;;;;;17.50;17.00;;;;;-147.17;100.00;-2018.47;4993000;28;50986;-62
2023/05/19 01:01:47;;;;;;;;;17.00;17.00;;;;;-147.17;100.00;-3012.78;4993068;28;51240;-63
2023/05/19 01:04:15;;;;;;;;;18.50;18.25;;;;;-147.17;100.00;-3261.34;4993287;28;51159;-64
2023/05/19 01:06:42;;;;;;;;;21.25;19.00;;;;;-147.17;100.00;-4503.81;4992743;28;51162;-64
2023/05/19 01:09:07;;;;;;;;;19.00;18.25;;;;;-147.17;100.00;-5497.50;4993002;28;51103;-63
2023/05/19 01:11:33;;;;;;;;;20.75;19.75;;;;;-147.17;100.00;-5249.09;4993196;28;51006;-63
2023/05/19 01:13:58;;;;;;;;;19.25;18.00;;;;;-147.17;100.00;-6242.59;4993024;28;51311;-62
2023/05/19 01:16:30;;;;;;;;;18.75;17.25;;;;;-147.17;100.00;-5994.25;4992871;28;51134;-62
2023/05/19 01:18:56;;;;;;;;;18.50;17.25;;;;;-147.17;100.00;-6242.59;4993141;28;51028;-62
2023/05/19 01:21:52;;;;;;;;;19.25;19.25;;;;;-147.17;100.00;-6987.56;4992734;28;51020;-62
2023/05/19 01:24:39;;;;;;;;;18.25;18.25;;;;;-147.17;100.00;-7732.34;4992540;28;51936;-62
2023/05/19 01:27:23;;;;;;;;;17.50;17.25;;;;;-147.17;100.00;-8228.81;4993115;28;51211;-62
2023/05/19 01:30:07;;;;;;;;;16.75;15.25;;;;;-147.17;100.00;-8725.22;4981588;28;51059;-63
2023/05/19 01:32:33;;;;;;;;;16.75;15.75;;;;;-147.17;100.00;-9221.53;4992963;28;51104;-64
2023/05/19 01:34:59;;;;;;;;;20.75;20.50;;;;;-147.17;100.00;-9469.69;4991274;28;53061;-63
2023/05/19 01:37:26;;;;;;;;;21.50;20.25;;;;;-147.17;100.00;-9469.69;4992236;28;51060;-63
2023/05/19 01:39:52;;;;;;;;;20.25;19.25;;;;;-147.17;100.00;-9469.69;4992664;28;51088;-63
2023/05/19 01:42:19;;;;;;;;;21.00;18.25;;;;;-147.17;100.00;-9965.91;4992817;28;51114;-62
2023/05/19 01:44:45;;;;;;;;;19.25;18.00;;;;;-147.17;100.00;-9965.91;4992672;28;50926;-62
2023/05/19 01:47:11;;;;;;;;;18.75;17.50;;;;;-147.17;100.00;-10462.09;4992505;28;51079;-62
2023/05/19 01:49:37;;;;;;;;;20.25;18.00;;;;;-147.17;100.00;-10710.16;4992736;28;51227;-63
2023/05/19 01:52:02;;;;;;;;;21.75;18.50;;;;;-147.17;100.00;-11206.22;4992548;28;51054;-62
2023/05/19 01:54:27;;;;;;;;;17.25;17.25;;;;;-147.17;100.00;-11206.22;4992391;28;52397;-62
2023/05/19 01:57:18;;;;;;;;;20.25;17.50;;;;;-147.17;100.00;-11702.25;4992617;28;51095;-62
2023/05/19 02:00:06;;;;;;;;;19.50;18.50;;;;;-147.17;100.00;-11950.22;4992385;28;51007;-62
2023/05/19 02:02:50;;;;;;;;;20.00;17.50;;;;;-147.17;100.00;-11950.22;4992553;28;50891;-63
2023/05/19 02:05:51;;;;;;;;;18.00;16.75;;;;;-147.17;100.00;-12198.19;4992092;28;51083;-62
2023/05/19 02:08:42;;;;;;;;;19.75;18.00;;;;;-147.17;100.00;-12446.13;4989179;28;51075;-62
2023/05/19 02:11:26;;;;;;;;;17.75;16.75;;;;;-147.17;100.00;-12694.06;4992320;28;51032;-62
2023/05/19 02:13:56;;;;;;;;;22.50;21.75;;;;;-147.17;100.00;-12941.97;4994893;28;51108;-62
2023/05/19 02:16:27;;;;;;;;;20.25;19.50;;;;;-147.17;100.00;-12941.97;4994152;28;53040;-63
2023/05/19 02:18:53;;;;;;;;;21.50;19.00;;;;;-147.17;100.00;-13437.75;4995802;28;51054;-62
2023/05/19 02:21:18;;;;;;;;;19.00;18.25;;;;;-147.17;100.00;-13685.63;4995239;28;51124;-62
2023/05/19 02:23:43;;;;;;;;;20.00;18.25;;;;;-147.17;100.00;-13685.63;4995896;28;50868;-63
2023/05/19 02:26:09;;;;;;;;;20.25;18.75;;;;;-147.17;100.00;-13685.63;4995461;28;51925;-63
2023/05/19 02:28:35;;;;;;;;;17.50;15.25;;;;;-147.17;100.00;-13933.50;4990978;28;51162;-63
2023/05/19 02:31:01;;;;;;;;;19.00;18.00;;;;;-147.17;100.00;-14181.31;4993300;28;51046;-62
2023/05/19 02:33:29;;;;;;;;;21.75;20.00;;;;;-147.17;100.00;-14181.31;4995512;28;51386;-61
2023/05/19 02:35:55;;;;;;;;;19.50;19.25;;;;;-147.17;100.00;-14429.16;4994935;28;52019;-62
2023/05/19 02:38:20;;;;;;;;;23.25;22.25;;;;;-147.17;100.00;-14429.16;4995341;28;51164;-62
2023/05/19 02:40:46;;;;;;;;;23.25;21.00;;;;;-147.17;100.00;-14429.16;4993830;28;50936;-63
2023/05/19 02:43:11;;;;;;;;;18.75;18.00;;;;;-147.17;100.00;-14676.94;4994342;28;51196;-63
2023/05/19 02:45:36;;;;;;;;;24.25;20.25;;;;;-147.17;100.00;-14924.75;4994864;28;51816;-63
2023/05/19 02:48:02;;;;;;;;;18.25;16.50;;;;;-147.17;100.00;-15172.50;4993843;28;50912;-62
2023/05/19 02:50:27;;;;;;;;;18.00;16.25;;;;;-147.17;100.00;-15172.50;4977124;28;50954;-63
2023/05/19 02:52:52;;;;;;;;;25.25;24.50;;;;;-147.17;100.00;-15172.50;4995465;28;51128;-63
2023/05/19 02:55:18;;;;;;;;;23.50;22.50;;;;;-147.17;100.00;-15420.25;4994936;28;51075;-63
2023/05/19 02:57:43;;;;;;;;;24.25;19.75;;;;;-147.17;100.00;-15420.25;4995301;28;50878;-63
2023/05/19 03:00:09;;;;;;;;;16.50;16.25;;;;;-147.17;100.00;-15420.25;4994978;28;51137;-62
2023/05/19 03:02:34;;;;;;;;;18.00;16.00;;;;;-147.17;100.00;-15420.25;4995568;28;51125;-62
2023/05/19 03:05:02;;;;;;;;;19.50;18.25;;;;;-147.17;100.00;-15668.00;4994723;28;51990;-63
2023/05/19 03:07:27;;;;;;;;;24.50;22.50;;;;;-147.17;100.00;-15668.00;4977529;28;51018;-63
2023/05/19 03:09:52;;;;;;;;;18.50;16.50;;;;;-147.17;100.00;-15668.00;4994684;28;50988;-62
2023/05/19 03:12:18;;;;;;;;;21.00;18.75;;;;;-147.17;100.00;-15915.72;4995143;28;51044;-62
2023/05/19 03:14:43;;;;;;;;;20.75;20.25;;;;;-147.17;100.00;-15915.72;4993375;28;52873;-62
2023/05/19 03:17:09;;;;;;;;;23.00;20.75;;;;;-147.17;100.00;-15915.72;4993631;28;51026;-62
2023/05/19 03:19:34;;;;;;;;;22.50;22.25;;;;;-147.17;100.00;-15915.72;4994961;28;51007;-62
2023/05/19 03:22:00;;;;;;;;;24.50;21.75;;;;;-147.17;100.00;-15915.72;4994891;28;51191;-62
2023/05/19 03:24:25;;;;;;;;;23.25;22.50;;;;;-147.17;100.00;-15917.19;4991920;28;52834;-62
2023/05/19 03:26:51;;;;;;;;;22.00;21.00;;;;;-147.17;100.00;-15917.19;4993474;28;51092;-61
2023/05/19 03:29:16;;;;;;;;;19.75;19.00;;;;;-147.17;100.00;-15917.19;4993424;28;51577;-61
2023/05/19 03:31:41;;;;;;;;;21.50;21.00;;;;;-147.17;100.00;-15917.19;4994901;28;51155;-61
2023/05/19 03:34:07;;;;;;;;;24.00;22.00;;;;;-147.17;100.00;-15917.19;4994290;28;51818;-62
2023/05/19 03:36:38;;;;;;;;;24.00;22.00;;;;;-147.17;100.00;-15917.19;4994441;28;51048;-61
2023/05/19 03:39:05;;;;;;;;;22.25;21.00;;;;;-147.17;100.00;-15917.19;4994341;28;51306;-63
2023/05/19 03:41:30;;;;;;;;;20.25;19.75;;;;;-147.17;100.00;-15917.19;4994698;28;51137;-62
2023/05/19 03:43:55;;;;;;;;;21.25;20.00;;;;;-147.17;100.00;-15917.19;4993871;28;58178;-62
2023/05/19 03:46:21;;;;;;;;;21.50;20.25;;;;;-147.17;100.00;-15917.19;4994230;28;52424;-62
2023/05/19 03:48:46;;;;;;;;;23.25;20.75;;;;;-147.17;100.00;-15917.19;4994304;28;51137;-62
2023/05/19 03:51:12;;;;;;;;;25.00;23.00;;;;;-147.17;100.00;-15917.19;4994437;28;51007;-62
2023/05/19 03:53:37;;;;;;;;;20.00;18.75;;;;;-147.17;100.00;-15917.19;4993929;28;51509;-63
2023/05/19 03:56:03;;;;;;;;;21.75;20.50;;;;;-147.17;100.00;-15917.19;4992976;28;51076;-62
2023/05/19 03:58:28;;;;;;;;;19.50;18.50;;;;;-147.17;100.00;-15917.19;4992899;28;51112;-63
2023/05/19 04:00:54;;;;;;;;;20.25;19.00;;;;;-147.17;100.00;-15917.19;4994321;28;51292;-62
2023/05/19 04:03:19;;;;;;;;;22.00;19.75;;;;;-147.17;100.00;-15917.19;4993750;28;52835;-63
2023/05/19 04:05:45;;;;;;;;;29.25;24.25;;;;;-147.17;100.00;-15917.19;4993937;28;51132;-62
2023/05/19 04:08:10;;;;;;;;;22.00;20.50;;;;;-147.17;100.00;-15917.19;4993981;28;51301;-63
2023/05/19 04:10:35;;;;;;;;;25.00;21.50;;;;;-147.17;100.00;-15917.19;4994216;28;51280;-63
2023/05/19 04:13:01;;;;;;;;;24.75;22.25;;;;;-147.17;100.00;-15917.19;4993539;28;51719;-62
2023/05/19 04:15:26;;;;;;;;;22.00;20.00;;;;;-147.17;100.00;-15917.19;4994146;28;51119;-62
2023/05/19 04:17:52;;;;;;;;;22.00;21.25;;;;;-147.17;100.00;-15917.19;4993969;28;51251;-62
2023/05/19 04:20:17;;;;;;;;;23.50;22.00;;;;;-147.17;100.00;-15917.19;4993800;28;51139;-62
2023/05/19 04:22:42;;;;;;;;;21.50;19.00;;;;;-147.17;100.00;-15917.19;4993539;28;50982;-62
2023/05/19 04:25:08;;;;;;;;;24.00;22.50;;;;;-147.17;100.00;-15917.19;4992720;28;51170;-63
2023/05/19 04:27:37;;;;;;;;;25.75;23.50;;;;;-147.17;100.00;-15917.19;4993784;28;50972;-62
2023/05/19 04:30:04;;;;;;;;;23.25;21.75;;;;;-147.17;100.00;-15917.19;4984594;28;51384;-61
2023/05/19 04:32:29;;;;;;;;;25.50;23.00;;;;;-147.17;100.00;-15917.19;4989234;28;53198;-61
2023/05/19 04:34:57;;;;;;;;;23.75;23.00;;;;;-147.17;100.00;-15917.19;4993648;28;51116;-63
2023/05/19 04:37:24;;;;;;;;;24.50;23.50;;;;;-147.17;100.00;-15917.19;4992887;28;51055;-63
2023/05/19 04:39:51;;;;;;;;;24.00;22.75;;;;;-147.17;100.00;-15917.19;4993667;28;50922;-62
2023/05/19 04:42:18;;;;;;;;;26.75;25.50;;;;;-147.17;100.00;-15917.19;4993092;28;51868;-62
2023/05/19 04:44:44;;;;;;;;;24.25;23.50;;;;;-147.17;100.00;-15917.19;4993574;28;50910;-61
2023/05/19 04:47:09;;;;;;;;;26.75;25.25;;;;;-147.17;100.00;-15917.19;4993354;28;50860;-62
2023/05/19 04:49:38;;;;;;;;;22.75;22.25;;;;;-147.17;100.00;-15917.19;4993652;28;51024;-62
2023/05/19 04:52:09;;;;;;;;;24.25;23.00;;;;;-147.17;100.00;-15917.19;4992969;28;51087;-62
2023/05/19 04:54:35;;;;;;;;;27.50;24.00;;;;;-147.17;100.00;-15917.19;4993504;28;51083;-62
2023/05/19 04:57:01;;;;;;;;;26.00;22.50;;;;;-147.17;100.00;-15917.19;4991926;28;51163;-61
2023/05/19 04:59:26;;;;;;;;;24.75;22.25;;;;;-147.17;100.00;-15917.19;4992111;28;51268;-63
2023/05/19 05:01:51;;;;;;;;;24.25;23.00;;;;;-147.17;100.00;-15917.19;4988406;28;52964;-62
2023/05/19 05:04:16;;;;;;;;;28.75;23.25;;;;;-147.17;100.00;-15917.19;4985459;28;51784;-63
2023/05/19 05:06:46;;;;;;;;;23.50;23.00;;;;;-147.17;100.00;-15917.19;4993142;28;51200;-62
2023/05/19 05:09:13;;;;;;;;;24.00;19.00;;;;;-147.17;100.00;-15917.19;4993356;28;51041;-61
2023/05/19 05:11:38;;;;;;;;;24.00;22.50;;;;;-147.17;100.00;-15917.19;5007885;28;52676;-62
2023/05/19 05:14:04;;;;;;;;;22.25;20.50;;;;;-147.17;100.00;-15917.19;4991714;28;50957;-63
2023/05/19 05:16:30;;;;;;;;;24.75;23.25;;;;;-147.17;100.00;-15917.19;4991857;28;50973;-62
2023/05/19 05:18:56;;;;;;;;;24.75;23.25;;;;;-147.17;100.00;-15917.19;4993405;28;51282;-62
2023/05/19 05:21:22;;;;;;;;;20.75;19.00;;;;;-147.17;100.00;-15915.72;4990953;28;52103;-62
2023/05/19 05:23:50;;;;;;;;;22.00;20.50;;;;;-147.17;100.00;-15172.50;4991874;28;51159;-62
2023/05/19 05:26:21;;;;;;;;;21.75;21.25;;;;;-147.17;100.00;-13685.63;4992678;28;51183;-63
2023/05/19 05:28:47;;;;;;;;;22.25;20.00;;;;;-147.17;100.00;-11702.25;4990826;28;51015;-63
2023/05/19 05:31:13;;;;;;;;;24.00;22.25;;;;;-147.17;100.00;-9965.91;4992452;28;51245;-63
2023/05/19 05:33:38;;;;;;;;;25.25;24.75;;;;;-147.17;100.00;-8228.81;4992936;28;51076;-62
2023/05/19 05:36:04;;;;;;;;;18.50;16.50;;;;;-147.17;100.00;-6242.59;4992992;28;51036;-63
2023/05/19 05:38:30;;;;;;;;;24.25;23.00;;;;;-147.17;100.00;-3509.84;4992803;28;50977;-63
2023/05/19 05:40:55;;;;;;;;;22.00;20.00;;;;;-147.17;100.00;-775.19;4991448;28;52161;-61
2023/05/19 05:43:20;;;;;;;;;21.00;20.25;;;;;-147.17;100.00;2210.31;4992424;28;54215;-62
2023/05/19 05:45:46;;;;;;;;;22.50;20.50;;;;;-147.17;100.00;4949.06;4992722;28;51012;-63
2023/05/19 05:48:12;;;;;;;;;23.75;22.00;;;;;-147.17;100.00;9933.56;4994205;28;50914;-62
2023/05/19 05:50:37;;;;;;;;;21.75;20.00;;;;;-147.17;100.00;12178.69;4995706;28;51270;-63
2023/05/19 05:53:06;;;;;;;;;26.50;23.00;;;;;-147.17;100.00;14674.81;4994686;28;51087;-63
2023/05/19 05:55:31;;;;;;;;;23.75;23.00;;;;;-147.17;100.00;17172.50;4996030;28;51026;-63
2023/05/19 05:57:57;;;;;;;;;24.50;23.00;;;;;-147.17;100.00;19171.84;4994789;28;51011;-63
2023/05/19 06:00:23;;;;;;;;;23.25;22.00;;;;;-147.17;100.00;21422.31;4992740;28;51266;-63
2023/05/19 06:02:50;;;;;;;;;21.50;20.25;;;;;-147.17;100.00;26334.09;4993312;28;51134;-63
2023/05/19 06:05:15;;;;;;;;;25.00;21.50;;;;;-147.17;100.00;29599.00;4995963;28;50952;-63
2023/05/19 06:07:41;;;;;;;;;19.75;18.75;;;;;-147.17;100.00;32086.72;4995865;28;51828;-62
2023/05/19 06:10:08;;;;;;;;;22.75;21.00;;;;;-147.17;100.00;33050.88;4990823;28;52675;-63
2023/05/19 06:12:34;;;;;;;;;19.33;16.67;;;;;-147.17;100.00;33791.78;4995184;28;50913;-63
2023/05/19 06:15:01;;;;;;;;;20.50;20.50;;;;;-147.17;100.00;36403.78;4995952;28;50960;-63
2023/05/19 06:17:27;;;;;;;;;22.33;19.67;;;;;-147.17;100.00;37902.72;4995869;28;51298;-63
2023/05/19 06:19:52;;;;;;;;;19.00;18.25;;;;;-147.17;100.00;39857.69;4994111;28;53425;-63
2023/05/19 06:22:17;;;;;;;;;20.50;18.50;;;;;-147.17;100.00;39147.03;4995481;28;51029;-63
2023/05/19 06:24:43;;;;;;;;;18.00;17.33;;;;;-147.17;100.00;40020.66;4995630;28;51354;-64
2023/05/19 06:27:08;;;;;;;;;23.25;22.25;;;;;-147.17;100.00;40865.00;4995816;28;51151;-63
2023/05/19 06:29:33;;;;;;;;;17.67;17.00;;;;;-147.17;100.00;41314.75;4995246;28;56474;-63
2023/05/19 06:31:59;;;;;;;;;19.00;18.33;;;;;-147.17;100.00;42403.00;4995590;28;51030;-63
2023/05/19 06:34:25;;;;;;;;;23.33;22.33;;;;;-147.17;100.00;42595.53;4995491;28;51075;-63
2023/05/19 06:36:50;;;;;;;;;21.00;20.00;;;;;-147.17;100.00;42448.19;4995010;28;51131;-64
2023/05/19 06:39:16;;;;;;;;;20.75;20.75;;;;;-147.17;100.00;43000.28;4993376;28;54105;-64
2023/05/19 06:41:41;;;;;;;;;21.00;18.33;;;;;-147.17;100.00;42970.81;4993782;28;50986;-62
2023/05/19 06:44:09;;;;;;;;;22.67;20.67;;;;;-147.17;100.00;43014.03;4995253;28;50879;-63
2023/05/19 06:46:34;;;;;;;;;17.33;17.33;;;;;-147.17;100.00;42982.59;4995147;28;50886;-62
2023/05/19 06:49:00;;;;;;;;;16.67;15.33;;;;;-147.17;100.00;43135.84;4995140;28;52006;-62
2023/05/19 06:51:25;;;;;;;;;24.50;22.50;;;;;-147.17;100.00;42894.16;4994727;28;51023;-65
2023/05/19 06:53:52;;;;;;;;;21.00;20.33;;;;;-147.17;100.00;43031.72;4993678;28;51151;-64
2023/05/19 06:56:17;;;;;;;;;27.00;22.00;;;;;-147.17;100.00;43452.22;4995135;28;50986;-63
2023/05/19 06:58:44;;;;;;;;;18.67;16.00;;;;;-147.17;100.00;43304.84;4994642;28;53093;-63
2023/05/19 07:01:10;;;;;;;;;19.67;18.67;;;;;-147.17;100.00;43212.50;4994922;28;51057;-62
2023/05/19 07:03:35;;;;;;;;;18.00;17.33;;;;;-147.17;100.00;43346.13;4994879;28;50991;-63
2023/05/19 07:06:01;;;;;;;;;18.33;18.00;;;;;-147.17;100.00;43273.41;4995079;28;51230;-63
2023/05/19 07:08:26;;;;;;;;;19.33;18.67;;;;;-147.17;100.00;43350.03;4994442;28;51970;-63
2023/05/19 07:10:52;;;;;;;;;14.00;14.00;;;;;-147.17;100.00;43715.56;4994873;28;51123;-64
2023/05/19 07:13:17;;;;;;;;;22.00;20.75;;;;;-147.17;100.00;44094.88;4994935;28;50985;-64
2023/05/19 07:15:43;;;;;;;;;20.67;18.67;;;;;-147.17;100.00;44020.19;4995214;28;51293;-63
2023/05/19 07:18:08;;;;;;;;;18.00;16.67;;;;;-147.17;100.00;43853.13;4994524;28;51838;-63
2023/05/19 07:20:34;;;;;;;;;18.67;18.33;;;;;-147.17;100.00;43693.94;4994813;28;50993;-63
2023/05/19 07:23:01;;;;;;;;;22.33;21.33;;;;;-147.17;100.00;43691.97;4994582;28;51083;-64
2023/05/19 07:25:29;;;;;;;;;20.33;19.33;;;;;-147.17;100.00;43365.75;4995082;28;50942;-62
2023/05/19 07:27:55;;;;;;;;;15.00;14.00;;;;;-147.17;100.00;43065.13;4993279;28;53071;-63
2023/05/19 07:30:20;;;;;;;;;18.67;17.00;;;;;-147.17;100.00;42945.25;4994387;28;50963;-63
2023/05/19 07:32:45;;;;;;;;;23.33;21.33;;;;;-147.17;100.00;42921.69;4994670;28;51123;-63
2023/05/19 07:35:11;;;;;;;;;18.00;17.00;;;;;-147.17;100.00;42941.34;4992741;28;53340;-63
2023/05/19 07:37:37;;;;;;;;;19.67;19.33;;;;;-147.17;100.00;42892.22;4992943;28;53099;-63
2023/05/19 07:40:03;;;;;;;;;23.25;22.00;;;;;-147.17;100.00;42953.13;4994239;28;51001;-63
2023/05/19 07:42:28;;;;;;;;;16.67;16.67;;;;;-147.17;100.00;42870.59;4993317;28;51327;-63
2023/05/19 07:44:54;;;;;;;;;20.25;18.25;;;;;-147.17;100.00;42599.47;4994713;28;50986;-63
2023/05/19 07:47:19;;;;;;;;;18.67;17.67;;;;;-147.17;100.00;42379.41;4994099;28;52216;-62
2023/05/19 07:49:44;;;;;;;;;18.67;17.00;;;;;-147.17;100.00;42214.41;4994506;28;51000;-62
2023/05/19 07:52:10;;;;;;;;;18.67;17.67;;;;;-147.17;100.00;42179.03;4994354;28;51226;-62
2023/05/19 07:54:35;;;;;;;;;17.00;15.67;;;;;-147.17;100.00;42110.28;4994621;28;51381;-63
2023/05/19 07:57:00;;;;;;;;;6.67;6.67;;;;;-147.17;100.00;42071.00;4993904;28;54109;-63
2023/05/19 07:59:26;;;;;;;;;15.00;14.67;;;;;-147.17;100.00;41695.81;4992704;28;51095;-63
2023/05/19 08:01:51;;;;;;;;;19.00;17.00;;;;;-147.17;100.00;41363.84;4993857;28;51213;-63
2023/05/19 08:04:16;;;;;;;;;15.00;15.00;;;;;-147.17;100.00;41316.72;4994262;28;51126;-63
2023/05/19 08:06:43;;;;;;;;;19.33;18.67;;;;;-147.17;100.00;41173.34;4992094;28;51655;-64
2023/05/19 08:09:09;;;;;;;;;23.33;21.00;;;;;-147.17;100.00;41163.53;4993819;28;51077;-63
2023/05/19 08:11:34;;;;;;;;;19.33;19.00;;;;;-147.17;100.00;41198.88;4988391;28;51161;-63
2023/05/19 08:13:59;;;;;;;;;17.00;15.67;;;;;-147.17;100.00;41263.69;4992417;28;51044;-64
2023/05/19 08:16:25;;;;;;;;;16.67;15.00;;;;;-147.17;100.00;41106.56;4993539;28;51077;-62
2023/05/19 08:18:51;;;;;;;;;20.33;20.33;;;;;-147.17;100.00;41130.16;4993624;28;50981;-62
2023/05/19 08:21:16;;;;;;;;;17.00;15.67;;;;;-147.17;100.00;41012.31;4993030;28;51999;-62
2023/05/19 08:23:41;;;;;;;;;18.33;17.67;;;;;-147.17;100.00;40918.03;4993906;28;51097;-64
2023/05/19 08:26:07;;;;;;;;;17.33;16.00;;;;;-147.17;100.00;40548.84;4993238;28;51609;-64
2023/05/19 08:28:32;;;;;;;;;18.75;18.75;;;;;-147.17;100.00;40725.59;4993524;28;50882;-64
2023/05/19 08:30:57;;;;;;;;;16.67;16.67;;;;;-147.17;100.00;40360.34;4992253;28;51073;-64
2023/05/19 08:33:23;;;;;;;;;16.33;16.00;;;;;-147.17;100.00;40313.22;4992410;28;51285;-64
2023/05/19 08:35:48;;;;;;;;;16.33;15.67;;;;;-147.17;100.00;40228.78;4992960;28;51147;-64
2023/05/19 08:38:13;;;;;;;;;17.33;17.00;;;;;-147.17;100.00;39818.44;4993506;28;50941;-64
2023/05/19 08:40:45;;;;;;;;;17.33;16.00;;;;;-147.17;100.00;39730.09;4993223;28;51237;-63
2023/05/19 08:43:10;;;;;;;;;17.33;17.00;;;;;-147.17;100.00;39488.63;4993379;28;51188;-63
2023/05/19 08:45:41;;;;;;;;;16.33;16.00;;;;;-147.17;100.00;39308.00;4992580;28;51879;-63
2023/05/19 08:48:07;;;;;;;;;20.33;19.00;;;;;-147.17;100.00;39308.00;4976125;28;51049;-63
2023/05/19 08:50:39;;;;;;;;;17.00;16.00;;;;;-147.17;100.00;39233.41;4992673;28;51053;-64
2023/05/19 08:53:12;;;;;;;;;20.00;19.33;;;;;-147.17;100.00;39050.84;4993091;28;51169;-63
2023/05/19 08:56:00;;;;;;;;;24.00;22.00;;;;;-147.17;100.00;39241.28;4993011;28;51738;-63
2023/05/19 08:58:26;;;;;;;;;17.00;15.75;;;;;-147.17;100.00;38970.38;4991350;28;51225;-64
2023/05/19 09:00:54;;;;;;;;;18.67;17.67;;;;;-147.17;100.00;38719.13;4992832;28;51055;-63
2023/05/19 09:03:21;;;;;;;;;15.67;15.00;;;;;-147.17;100.00;38829.06;4992856;28;51345;-63
2023/05/19 09:05:47;;;;;;;;;19.33;18.00;;;;;-147.17;100.00;38940.94;4990191;28;52080;-63
2023/05/19 09:10:50;;;;;;;;;19.00;17.33;;;;;-147.17;100.00;38738.78;5179940;22;51378;-70
2023/05/19 09:13:15;;;;;;;;;19.33;17.33;;;;;-147.17;100.00;38405.13;4992378;28;50892;-71
2023/05/19 09:15:41;;;;;;;;;17.00;16.67;;;;;-147.17;100.00;38350.16;4992012;28;55099;-69
2023/05/19 09:18:09;;;;;;;;;16.50;15.75;;;;;-147.17;100.00;38446.31;4992039;28;51142;-71
2023/05/19 09:20:42;;;;;;;;;17.33;17.00;;;;;-147.17;100.00;38303.06;4992711;28;51003;-72
2023/05/19 09:23:15;;;;;;;;;16.33;16.00;;;;;-147.17;100.00;38254.00;4975083;28;50942;-74
2023/05/19 09:25:52;;;;;;;;;14.00;14.00;;;;;-147.17;100.00;37947.84;4990589;28;51761;-75
2023/05/19 09:28:29;;;;;;;;;14.67;14.00;;;;;-147.17;100.00;37890.94;4992237;28;51144;-72
2023/05/19 09:31:02;;;;;;;;;17.00;16.00;;;;;-147.17;100.00;37771.25;4992070;28;51154;-75
2023/05/19 09:33:29;;;;;;;;;15.00;14.00;;;;;-147.17;100.00;37427.84;4992402;28;51095;-74
2023/05/19 09:35:55;;;;;;;;;15.67;13.67;;;;;-147.17;100.00;37677.06;4991786;28;51976;-75
2023/05/19 09:38:23;;;;;;;;;17.33;17.33;;;;;-147.17;100.00;37983.19;4991906;28;51054;-74
2023/05/19 09:40:51;;;;;;;;;14.33;13.67;;;;;-147.17;100.00;37977.28;4991771;28;51017;-74
2023/05/19 09:43:16;;;;;;;;;19.75;16.00;;;;;-147.17;100.00;38650.44;4992243;28;51104;-72
2023/05/19 09:45:42;;;;;;;;;14.00;13.00;;;;;-147.17;100.00;38844.75;4991409;28;51695;-71
2023/05/19 09:48:07;;;;;;;;;12.33;12.33;;;;;-147.17;100.00;38703.44;4992143;28;51161;-74
2023/05/19 09:50:33;;;;;;;;;13.00;12.33;;;;;-147.17;100.00;38717.19;4991774;28;51123;-75
2023/05/19 09:52:58;;;;;;;;;13.00;12.67;;;;;-147.17;100.00;38917.38;4992243;28;51052;-74
2023/05/19 09:55:27;;;;;;;;;12.33;11.67;;;;;-147.17;100.00;39186.31;4991849;28;51114;-73
2023/05/19 09:57:56;;;;;;;;;12.33;12.00;;;;;-147.17;100.00;39109.75;4991936;28;51071;-74
2023/05/19 10:00:22;;;;;;;;;9.00;9.00;;;;;-147.17;100.00;38907.56;4991535;28;50931;-74
2023/05/19 10:02:49;;;;;;;;;11.33;10.00;;;;;-147.17;100.00;38966.47;4992241;28;50867;-72
2023/05/19 10:05:18;;;;;;;;;13.00;13.00;;;;;-147.17;100.00;38935.06;4992252;28;50991;-74
2023/05/19 10:07:47;;;;;;;;;10.33;9.33;;;;;-147.17;100.00;39131.34;4992361;28;51017;-74
2023/05/19 10:10:14;;;;;;;;;11.33;10.67;;;;;-147.17;100.00;39323.72;4990279;28;51250;-73
2023/05/19 10:12:40;;;;;;;;;9.33;9.33;;;;;-147.17;100.00;39726.16;4991756;28;51216;-73
2023/05/19 10:15:10;;;;;;;;;10.67;10.67;;;;;-147.17;100.00;40234.69;4991114;28;53403;-73
2023/05/19 10:17:40;;;;;;;;;10.67;10.33;;;;;-147.17;100.00;40768.78;4973967;28;50897;-73
2023/05/19 10:20:09;;;;;;;;;8.67;8.67;;;;;-147.17;100.00;40957.31;4990884;28;51259;-71
2023/05/19 10:22:35;;;;;;;;;10.67;10.00;;;;;-147.17;100.00;41420.81;4984903;28;51318;-71
2023/05/19 10:25:00;;;;;;;;;11.00;10.67;;;;;-147.17;100.00;42067.06;4991374;28;51117;-71
2023/05/19 10:27:28;;;;;;;;;10.00;10.00;;;;;-147.17;100.00;42902.03;4991537;28;51114;-70
2023/05/19 10:29:57;;;;;;;;;10.33;10.00;;;;;-147.17;100.00;43585.84;4991296;28;50924;-72
2023/05/19 10:32:28;;;;;;;;;13.00;11.00;;;;;-147.17;100.00;44124.34;4991440;28;50959;-72
2023/05/19 10:34:59;;;;;;;;;11.67;11.67;;;;;-147.17;100.00;44385.78;4992952;28;51546;-72
2023/05/19 10:37:36;;;;;;;;;8.67;8.67;;;;;-147.17;100.00;44649.16;4994709;28;51209;-71
2023/05/19 10:40:11;;;;;;;;;5.00;5.00;;;;;-147.17;100.00;45185.84;4982245;28;50916;-71
2023/05/19 10:43:11;;;;;;;;;9.00;9.00;;;;;-147.17;100.00;45757.97;4977040;28;51004;-71
2023/05/19 10:45:57;;;;;;;;;6.67;6.33;;;;;-147.17;100.00;46159.13;4962459;28;51844;-65
2023/05/19 10:48:22;;;;;;;;;9.33;9.33;;;;;-147.17;100.00;46373.47;4993624;28;51129;-69
2023/05/19 10:50:52;;;;;;;;;9.33;9.33;;;;;-147.17;100.00;46511.13;4964341;28;51183;-70
2023/05/19 10:53:21;;;;;;;;;11.67;10.00;;;;;-147.17;100.00;46292.84;4994821;28;51059;-60
2023/05/19 10:55:57;;;;;;;;;12.00;11.00;;;;;-147.17;100.00;46369.53;4993649;28;52969;-62